createdAt,value
2019-02-19T00:02:13.081Z,2.10
2019-02-19T00:04:41.625Z,2.10
2019-02-19T00:07:10.187Z,2.10
2019-02-19T00:09:38.655Z,2.10
2019-02-19T00:12:07.146Z,2.10
2019-02-19T00:14:35.679Z,2.10
2019-02-19T00:17:04.239Z,2.30
2019-02-19T00:19:32.784Z,2.30
2019-02-19T00:22:01.347Z,2.30
2019-02-19T00:24:29.810Z,2.40
2019-02-19T00:26:58.615Z,2.30
2019-02-19T00:29:27.085Z,2.30
2019-02-19T00:31:55.692Z,2.30
2019-02-19T00:34:24.196Z,2.30
2019-02-19T00:36:52.798Z,2.40
2019-02-19T00:39:21.294Z,2.40
2019-02-19T00:41:49.760Z,2.30
2019-02-19T00:44:18.219Z,2.30
2019-02-19T00:46:46.721Z,2.30
2019-02-19T00:49:15.181Z,2.20
2019-02-19T00:51:43.643Z,2.20
2019-02-19T00:54:12.126Z,2.10
2019-02-19T00:56:40.609Z,2.00
2019-02-19T00:59:09.075Z,2.00
2019-02-19T01:01:37.534Z,2.00
2019-02-19T01:04:06.086Z,2.00
2019-02-19T01:06:34.665Z,2.00
2019-02-19T01:09:04.846Z,2.20
2019-02-19T01:11:33.380Z,2.20
2019-02-19T01:14:02.634Z,2.30
2019-02-19T01:16:31.118Z,2.30
2019-02-19T01:18:59.675Z,2.10
2019-02-19T01:21:28.134Z,2.10
2019-02-19T01:23:56.622Z,2.10
2019-02-19T01:26:25.083Z,2.00
2019-02-19T01:28:53.642Z,2.00
2019-02-19T01:31:22.128Z,1.90
2019-02-19T01:33:50.610Z,1.90
2019-02-19T01:36:19.103Z,1.80
2019-02-19T01:38:47.644Z,1.80
2019-02-19T01:41:16.203Z,1.80
2019-02-19T01:43:44.738Z,1.80
2019-02-19T01:46:13.222Z,1.80
2019-02-19T01:48:41.848Z,1.90
2019-02-19T01:51:10.331Z,2.00
2019-02-19T01:53:38.834Z,2.00
2019-02-19T01:56:07.443Z,1.90
2019-02-19T01:58:35.898Z,1.90
2019-02-19T02:01:04.386Z,1.90
2019-02-19T02:03:33.139Z,1.80
2019-02-19T02:06:01.600Z,1.70
2019-02-19T02:08:30.094Z,1.60
2019-02-19T02:10:58.703Z,1.50
2019-02-19T02:13:27.187Z,1.60
2019-02-19T02:15:55.715Z,1.50
2019-02-19T02:18:24.176Z,1.60
2019-02-19T02:20:52.659Z,1.60
2019-02-19T02:23:21.154Z,1.70
2019-02-19T02:25:49.619Z,1.60
2019-02-19T02:28:18.088Z,1.60
2019-02-19T02:30:46.594Z,1.40
2019-02-19T02:33:15.063Z,1.40
2019-02-19T02:35:43.618Z,1.30
2019-02-19T02:38:12.110Z,1.20
2019-02-19T02:40:40.594Z,1.10
2019-02-19T02:43:09.082Z,1.10
2019-02-19T02:45:37.612Z,1.10
2019-02-19T02:48:06.095Z,1.10
2019-02-19T02:50:34.582Z,1.10
2019-02-19T02:53:03.039Z,1.10
2019-02-19T02:55:31.525Z,1.20
2019-02-19T02:57:59.987Z,1.10
2019-02-19T03:00:28.451Z,1.20
2019-02-19T03:02:56.939Z,1.20
2019-02-19T03:05:25.506Z,1.20
2019-02-19T03:07:58.366Z,1.20
2019-02-19T03:10:26.905Z,1.20
2019-02-19T03:12:55.557Z,1.10
2019-02-19T03:15:24.150Z,1.10
2019-02-19T03:17:52.713Z,1.20
2019-02-19T03:20:21.242Z,1.20
2019-02-19T03:22:49.809Z,1.20
2019-02-19T03:25:18.298Z,1.20
2019-02-19T03:27:46.759Z,1.20
2019-02-19T03:30:15.343Z,1.20
2019-02-19T03:32:43.875Z,1.20
2019-02-19T03:35:12.406Z,1.20
2019-02-19T03:37:40.898Z,1.20
2019-02-19T03:40:09.602Z,1.20
2019-02-19T03:42:38.093Z,1.20
2019-02-19T03:45:09.091Z,1.20
2019-02-19T03:47:37.556Z,1.30
2019-02-19T03:50:06.474Z,1.30
2019-02-19T03:52:35.008Z,1.30
2019-02-19T03:55:03.611Z,1.30
2019-02-19T03:57:32.247Z,1.40
2019-02-19T04:00:00.835Z,1.40
2019-02-19T04:02:29.984Z,1.40
2019-02-19T04:04:58.675Z,1.50
2019-02-19T04:07:27.168Z,1.40
2019-02-19T04:09:55.626Z,1.40
2019-02-19T04:12:24.116Z,1.40
2019-02-19T04:14:52.647Z,1.40
2019-02-19T04:17:21.143Z,1.30
2019-02-19T04:19:49.689Z,1.30
2019-02-19T04:22:18.259Z,1.30
2019-02-19T04:24:46.732Z,1.30
2019-02-19T04:27:15.285Z,1.30
2019-02-19T04:29:43.843Z,1.30
2019-02-19T04:32:12.404Z,1.30
2019-02-19T04:34:40.899Z,1.30
2019-02-19T04:37:09.430Z,1.30
2019-02-19T04:39:37.889Z,1.30
2019-02-19T04:42:06.507Z,1.40
2019-02-19T04:44:34.998Z,1.50
2019-02-19T04:47:03.454Z,1.70
2019-02-19T04:49:31.939Z,1.80
2019-02-19T04:52:00.403Z,1.90
2019-02-19T04:54:28.967Z,1.90
2019-02-19T04:56:57.502Z,2.00
2019-02-19T04:59:25.966Z,2.10
2019-02-19T05:01:54.469Z,2.20
2019-02-19T05:04:23.410Z,2.30
2019-02-19T05:06:51.879Z,2.30
2019-02-19T05:09:20.366Z,2.40
2019-02-19T05:11:48.938Z,2.40
2019-02-19T05:14:17.394Z,2.50
2019-02-19T05:16:45.873Z,2.50
2019-02-19T05:19:14.434Z,2.60
2019-02-19T05:21:42.898Z,2.60
2019-02-19T05:24:11.391Z,2.70
2019-02-19T05:26:39.890Z,2.80
2019-02-19T05:29:08.373Z,2.90
2019-02-19T05:31:36.954Z,2.90
2019-02-19T05:34:05.499Z,3.00
2019-02-19T05:36:34.043Z,3.00
2019-02-19T05:39:02.707Z,3.10
2019-02-19T05:41:31.236Z,3.10
2019-02-19T05:43:59.772Z,3.10
2019-02-19T05:46:28.421Z,3.00
2019-02-19T05:48:57.305Z,3.00
2019-02-19T05:51:25.760Z,3.00
2019-02-19T05:53:54.257Z,3.00
2019-02-19T05:56:22.792Z,3.00
2019-02-19T05:58:51.352Z,3.00
2019-02-19T06:01:19.910Z,3.00
2019-02-19T06:03:48.459Z,3.00
2019-02-19T06:06:16.918Z,3.00
2019-02-19T06:08:45.442Z,2.90
2019-02-19T06:11:14.091Z,2.90
2019-02-19T06:13:42.583Z,2.90
2019-02-19T06:16:11.050Z,2.90
2019-02-19T06:18:39.622Z,3.00
2019-02-19T06:21:08.091Z,3.00
2019-02-19T06:23:44.413Z,3.10
2019-02-19T06:26:12.948Z,3.20
2019-02-19T06:28:41.478Z,3.20
2019-02-19T06:31:10.149Z,3.30
2019-02-19T06:33:38.682Z,3.30
2019-02-19T06:36:07.282Z,3.40
2019-02-19T06:38:35.774Z,3.50
2019-02-19T06:41:04.463Z,3.50
2019-02-19T06:43:32.956Z,3.50
2019-02-19T06:46:01.511Z,3.50
2019-02-19T06:48:29.978Z,3.60
2019-02-19T06:50:58.485Z,3.70
2019-02-19T06:53:27.034Z,3.70
2019-02-19T06:55:55.499Z,3.80
2019-02-19T06:58:24.058Z,3.90
2019-02-19T07:00:52.519Z,4.00
2019-02-19T07:03:31.575Z,4.10
2019-02-19T07:06:00.109Z,4.10
2019-02-19T07:08:28.678Z,4.20
2019-02-19T07:10:57.167Z,4.30
2019-02-19T07:13:25.723Z,4.30
2019-02-19T07:15:54.203Z,4.30
2019-02-19T07:18:22.672Z,4.30
2019-02-19T07:20:51.248Z,4.40
2019-02-19T07:23:19.782Z,4.40
2019-02-19T07:25:48.271Z,4.50
2019-02-19T07:28:16.824Z,4.60
2019-02-19T07:30:45.369Z,4.70
2019-02-19T07:33:13.908Z,4.70
2019-02-19T07:35:42.409Z,4.70
2019-02-19T07:38:10.946Z,4.80
2019-02-19T07:40:39.435Z,4.90
2019-02-19T07:43:07.902Z,4.80
2019-02-19T07:45:36.363Z,4.80
2019-02-19T07:48:04.926Z,4.80
2019-02-19T07:50:33.546Z,4.80
2019-02-19T07:53:02.188Z,4.80
2019-02-19T07:55:30.721Z,4.90
2019-02-19T07:57:59.286Z,4.90
2019-02-19T08:00:27.764Z,5.00
2019-02-19T08:02:56.255Z,5.00
2019-02-19T08:05:24.788Z,5.10
2019-02-19T08:07:53.279Z,5.10
2019-02-19T08:10:21.846Z,5.10
2019-02-19T08:12:50.410Z,5.10
2019-02-19T08:15:18.965Z,5.20
2019-02-19T08:17:47.531Z,5.20
2019-02-19T08:20:16.438Z,5.20
2019-02-19T08:22:44.989Z,5.20
2019-02-19T08:25:13.611Z,5.30
2019-02-19T08:27:42.098Z,5.40
2019-02-19T08:30:11.257Z,5.40
2019-02-19T08:32:39.963Z,5.30
2019-02-19T08:35:08.607Z,5.40
2019-02-19T08:37:37.081Z,5.50
2019-02-19T08:40:08.861Z,5.50
2019-02-19T08:42:37.371Z,5.40
2019-02-19T08:45:07.975Z,5.40
2019-02-19T08:47:42.315Z,5.50
2019-02-19T08:50:08.280Z,5.50
2019-02-19T08:52:36.840Z,5.60
2019-02-19T08:55:06.326Z,5.70
2019-02-19T08:57:34.928Z,5.80
2019-02-19T09:00:05.115Z,5.90
2019-02-19T09:02:33.643Z,6.10
2019-02-19T09:05:02.135Z,6.30
2019-02-19T09:07:30.629Z,6.40
2019-02-19T09:09:59.164Z,6.50
2019-02-19T09:12:27.655Z,6.60
2019-02-19T09:14:56.118Z,6.50
2019-02-19T09:17:24.583Z,6.60
2019-02-19T09:19:53.075Z,6.60
2019-02-19T09:22:21.635Z,6.70
2019-02-19T09:24:50.127Z,6.80
2019-02-19T09:27:18.664Z,6.80
2019-02-19T09:29:47.614Z,6.80
2019-02-19T09:32:16.198Z,6.80
2019-02-19T09:34:46.635Z,6.70
2019-02-19T09:37:14.887Z,6.70
2019-02-19T09:39:43.475Z,6.70
2019-02-19T09:42:11.942Z,6.70
2019-02-19T09:44:40.446Z,6.70
2019-02-19T09:47:08.919Z,6.70
2019-02-19T09:49:37.466Z,6.70
2019-02-19T09:52:05.956Z,6.60
2019-02-19T09:54:34.586Z,6.60
2019-02-19T09:57:03.103Z,6.50
2019-02-19T09:59:31.571Z,6.60
2019-02-19T10:02:00.106Z,6.60
2019-02-19T10:04:29.212Z,6.70
2019-02-19T10:06:57.799Z,6.90
2019-02-19T10:09:26.434Z,7.30
2019-02-19T10:11:54.910Z,7.80
2019-02-19T10:14:23.449Z,8.20
2019-02-19T10:16:52.086Z,8.40
2019-02-19T10:19:20.579Z,8.70
2019-02-19T10:21:49.190Z,8.90
2019-02-19T10:24:17.682Z,9.30
2019-02-19T10:26:46.222Z,9.80
2019-02-19T10:29:14.738Z,10.10
2019-02-19T10:31:43.267Z,10.30
2019-02-19T10:34:11.806Z,10.60
2019-02-19T10:36:40.311Z,10.90
2019-02-19T10:39:10.835Z,11.10
2019-02-19T10:41:39.405Z,11.10
2019-02-19T10:44:08.126Z,11.00
2019-02-19T10:46:36.751Z,11.00
2019-02-19T10:49:05.359Z,10.90
2019-02-19T10:51:53.205Z,10.90
2019-02-19T10:54:21.734Z,11.10
2019-02-19T10:56:50.235Z,11.20
2019-02-19T10:59:18.719Z,11.50
2019-02-19T11:01:47.438Z,11.50
2019-02-19T11:04:16.079Z,11.70
2019-02-19T11:06:44.581Z,11.80
2019-02-19T11:09:13.123Z,11.40
2019-02-19T11:11:41.690Z,11.40
2019-02-19T11:14:10.162Z,11.30
2019-02-19T11:16:39.569Z,11.40
2019-02-19T11:19:08.135Z,11.80
2019-02-19T11:21:36.606Z,12.20
2019-02-19T11:24:05.263Z,12.60
2019-02-19T11:26:33.736Z,12.80
2019-02-19T11:29:02.299Z,13.00
2019-02-19T11:31:30.766Z,13.30
2019-02-19T11:33:59.250Z,13.50
2019-02-19T11:36:27.806Z,13.70
2019-02-19T11:38:56.367Z,13.70
2019-02-19T11:41:24.912Z,13.80
2019-02-19T11:43:53.542Z,14.10
2019-02-19T11:46:22.071Z,14.30
2019-02-19T11:48:50.586Z,14.50
2019-02-19T11:51:19.059Z,14.90
2019-02-19T11:53:47.597Z,15.20
2019-02-19T11:56:16.164Z,15.50
2019-02-19T11:58:44.640Z,15.50
2019-02-19T12:01:13.181Z,15.50
2019-02-19T12:03:41.680Z,15.50
2019-02-19T12:06:10.171Z,15.50
2019-02-19T12:08:39.276Z,15.70
2019-02-19T12:11:08.154Z,15.70
2019-02-19T12:13:36.706Z,15.40
2019-02-19T12:16:05.243Z,15.40
2019-02-19T12:18:33.802Z,15.20
2019-02-19T12:21:02.280Z,14.90
2019-02-19T12:23:30.843Z,14.60
2019-02-19T12:25:59.408Z,14.50
2019-02-19T12:28:27.875Z,14.50
2019-02-19T12:30:56.424Z,14.40
2019-02-19T12:33:24.935Z,14.30
2019-02-19T12:35:53.410Z,14.30
2019-02-19T12:38:21.971Z,14.30
2019-02-19T12:40:50.442Z,14.20
2019-02-19T12:43:18.928Z,14.00
2019-02-19T12:45:47.391Z,13.70
2019-02-19T12:48:15.883Z,13.30
2019-02-19T12:50:44.422Z,13.00
2019-02-19T12:53:12.922Z,12.70
2019-02-19T12:55:41.396Z,12.70
2019-02-19T12:58:10.183Z,12.70
2019-02-19T13:00:38.671Z,12.60
2019-02-19T13:03:07.135Z,12.60
2019-02-19T13:05:35.623Z,12.50
2019-02-19T13:08:04.225Z,12.30
2019-02-19T13:10:32.722Z,12.20
2019-02-19T13:13:01.259Z,12.20
2019-02-19T13:15:29.906Z,12.20
2019-02-19T13:17:58.367Z,12.20
2019-02-19T13:20:26.901Z,12.20
2019-02-19T13:22:55.461Z,12.20
2019-02-19T13:25:24.026Z,12.30
2019-02-19T13:27:52.491Z,12.40
2019-02-19T13:30:22.096Z,12.40
2019-02-19T13:32:50.654Z,12.50
2019-02-19T13:35:19.232Z,12.60
2019-02-19T13:37:47.939Z,12.60
2019-02-19T13:40:20.384Z,12.60
2019-02-19T13:42:48.946Z,12.70
2019-02-19T13:45:17.734Z,12.80
2019-02-19T13:47:46.296Z,12.80
2019-02-19T13:50:26.554Z,12.80
2019-02-19T13:52:56.679Z,12.80
2019-02-19T13:55:26.884Z,12.80
2019-02-19T13:57:57.305Z,13.00
2019-02-19T14:00:27.399Z,13.10
2019-02-19T14:02:55.862Z,13.10
2019-02-19T14:05:24.353Z,13.00
2019-02-19T14:07:52.958Z,12.80
2019-02-19T14:10:21.510Z,12.90
2019-02-19T14:12:49.998Z,12.90
2019-02-19T14:15:29.351Z,12.90
2019-02-19T14:17:57.999Z,12.80
2019-02-19T14:20:33.906Z,12.70
2019-02-19T14:23:04.013Z,12.50
2019-02-19T14:25:50.652Z,12.60
2019-02-19T14:28:37.166Z,12.70
2019-02-19T14:31:16.237Z,12.90
2019-02-19T14:33:49.399Z,13.00
2019-02-19T14:36:22.375Z,13.20
2019-02-19T14:38:58.640Z,13.10
2019-02-19T14:41:28.838Z,13.10
2019-02-19T14:43:59.067Z,13.00
2019-02-19T14:46:41.395Z,12.90
2019-02-19T14:49:31.448Z,12.80
2019-02-19T14:51:55.466Z,12.70
2019-02-19T14:54:40.763Z,12.70
2019-02-19T14:57:10.871Z,12.60
2019-02-19T14:59:44.535Z,12.50
2019-02-19T15:02:17.327Z,12.50
2019-02-19T15:04:48.356Z,12.40
2019-02-19T15:07:20.974Z,12.30
2019-02-19T15:10:09.575Z,12.20
2019-02-19T15:12:56.254Z,12.20
2019-02-19T15:15:42.734Z,12.10
2019-02-19T15:18:12.907Z,12.00
2019-02-19T15:21:01.336Z,11.90
2019-02-19T15:23:31.465Z,11.90
2019-02-19T15:26:10.727Z,11.90
2019-02-19T15:28:43.900Z,11.90
2019-02-19T15:31:25.863Z,11.80
2019-02-19T15:34:12.154Z,11.70
2019-02-19T15:36:58.510Z,11.70
2019-02-19T15:39:31.603Z,11.60
2019-02-19T15:42:01.730Z,11.50
2019-02-19T15:44:41.483Z,11.40
2019-02-19T15:47:27.931Z,11.30
2019-02-19T15:50:04.183Z,11.30
2019-02-19T15:52:43.011Z,11.20
2019-02-19T15:55:15.863Z,11.10
2019-02-19T15:57:48.942Z,11.00
2019-02-19T16:00:34.371Z,11.00
2019-02-19T16:03:04.499Z,10.90
2019-02-19T16:05:50.872Z,10.80
2019-02-19T16:08:37.087Z,10.70
2019-02-19T16:11:07.593Z,10.60
2019-02-19T16:13:52.888Z,10.50
2019-02-19T16:16:23.021Z,10.40
2019-02-19T16:18:59.061Z,10.30
2019-02-19T16:21:45.727Z,10.20
2019-02-19T16:24:18.639Z,10.10
2019-02-19T16:27:05.212Z,10.00
2019-02-19T16:29:38.362Z,9.90
2019-02-19T16:32:26.012Z,9.70
2019-02-19T16:34:59.153Z,9.60
2019-02-19T16:37:32.370Z,9.40
2019-02-19T16:40:18.531Z,9.30
2019-02-19T16:42:54.967Z,9.20
2019-02-19T16:45:28.241Z,9.20
2019-02-19T16:48:01.351Z,9.10
2019-02-19T16:50:31.451Z,9.00
2019-02-19T16:53:01.587Z,9.00
2019-02-19T16:55:37.645Z,8.90
2019-02-19T16:58:07.862Z,8.70
2019-02-19T17:00:53.887Z,8.50
2019-02-19T17:03:32.727Z,8.40
2019-02-19T17:06:05.483Z,8.30
2019-02-19T17:08:41.483Z,8.20
2019-02-19T17:11:17.991Z,8.20
2019-02-19T17:14:06.369Z,8.10
2019-02-19T17:16:52.880Z,8.00
2019-02-19T17:19:26.151Z,7.80
2019-02-19T17:21:56.318Z,7.70
2019-02-19T17:24:26.439Z,7.50
2019-02-19T17:26:59.518Z,7.40
2019-02-19T17:29:29.747Z,7.30
2019-02-19T17:31:59.851Z,7.20
2019-02-19T17:34:42.156Z,7.20
2019-02-19T17:37:12.255Z,7.20
2019-02-19T17:39:58.982Z,7.00
2019-02-19T17:42:32.065Z,6.90
2019-02-19T17:45:17.619Z,6.90
2019-02-19T17:47:47.718Z,6.90
2019-02-19T17:50:20.330Z,6.90
2019-02-19T17:52:53.451Z,6.80
2019-02-19T17:55:39.531Z,6.80
2019-02-19T17:58:21.864Z,6.70
2019-02-19T18:00:52.035Z,6.80
2019-02-19T18:03:38.441Z,6.90
2019-02-19T18:06:25.317Z,6.90
2019-02-19T18:08:58.488Z,6.90
2019-02-19T18:11:43.621Z,6.80
2019-02-19T18:14:22.875Z,6.70
2019-02-19T18:17:04.627Z,6.60
2019-02-19T18:19:33.117Z,6.50
2019-02-19T18:22:01.578Z,6.40
2019-02-19T18:24:30.119Z,6.20
2019-02-19T18:26:58.599Z,6.10
2019-02-19T18:29:27.092Z,6.10
2019-02-19T18:31:55.559Z,6.00
2019-02-19T18:34:24.043Z,5.90
2019-02-19T18:36:52.506Z,5.90
2019-02-19T18:39:21.062Z,5.70
2019-02-19T18:41:49.523Z,5.70
2019-02-19T18:44:18.954Z,5.60
2019-02-19T18:46:47.512Z,5.50
2019-02-19T18:49:16.023Z,5.50
2019-02-19T18:51:44.506Z,5.40
2019-02-19T18:54:13.039Z,5.40
2019-02-19T18:56:41.591Z,5.40
2019-02-19T18:59:10.051Z,5.40
2019-02-19T19:01:38.539Z,5.30
2019-02-19T19:04:07.070Z,5.30
2019-02-19T19:06:35.575Z,5.30
2019-02-19T19:09:05.516Z,5.30
2019-02-19T19:11:33.978Z,5.20
2019-02-19T19:14:02.463Z,5.20
2019-02-19T19:16:30.922Z,5.20
2019-02-19T19:18:59.447Z,5.20
2019-02-19T19:21:27.914Z,5.20
2019-02-19T19:23:56.474Z,5.20
2019-02-19T19:26:24.935Z,5.10
2019-02-19T19:28:53.419Z,5.00
2019-02-19T19:31:21.975Z,5.00
2019-02-19T19:33:50.479Z,4.90
2019-02-19T19:36:19.019Z,4.80
2019-02-19T19:38:47.559Z,4.70
2019-02-19T19:41:16.057Z,4.70
2019-02-19T19:43:44.617Z,4.60
2019-02-19T19:46:13.075Z,4.50
2019-02-19T19:48:41.673Z,4.40
2019-02-19T19:51:17.129Z,4.30
2019-02-19T19:53:40.393Z,4.30
2019-02-19T19:56:08.875Z,4.20
2019-02-19T19:58:37.415Z,4.20
2019-02-19T20:01:05.994Z,4.20
2019-02-19T20:03:34.523Z,4.20
2019-02-19T20:06:03.092Z,4.30
2019-02-19T20:08:31.735Z,4.20
2019-02-19T20:11:00.234Z,4.20
2019-02-19T20:13:28.763Z,4.20
2019-02-19T20:15:57.395Z,4.10
2019-02-19T20:18:25.897Z,4.00
2019-02-19T20:20:54.455Z,4.00
2019-02-19T20:23:23.319Z,3.90
2019-02-19T20:25:51.803Z,3.80
2019-02-19T20:28:20.308Z,3.90
2019-02-19T20:30:48.843Z,3.90
2019-02-19T20:33:17.303Z,3.90
2019-02-19T20:35:45.795Z,3.90
2019-02-19T20:38:14.286Z,3.80
2019-02-19T20:40:42.823Z,3.70
2019-02-19T20:43:11.419Z,3.60
2019-02-19T20:45:39.956Z,3.50
2019-02-19T20:48:08.501Z,3.40
2019-02-19T20:50:37.073Z,3.20
2019-02-19T20:53:05.697Z,3.10
2019-02-19T20:55:36.950Z,3.10
2019-02-19T20:58:04.607Z,3.00
2019-02-19T21:00:33.088Z,3.00
2019-02-19T21:03:01.546Z,3.10
2019-02-19T21:05:30.012Z,3.10
2019-02-19T21:07:58.573Z,3.10
2019-02-19T21:10:27.211Z,3.10
2019-02-19T21:12:55.775Z,3.00
2019-02-19T21:15:24.243Z,3.00
2019-02-19T21:17:52.712Z,3.00
2019-02-19T21:20:22.143Z,3.00
2019-02-19T21:22:50.931Z,2.90
2019-02-19T21:25:19.470Z,2.90
2019-02-19T21:27:47.959Z,2.90
2019-02-19T21:30:16.931Z,2.90
2019-02-19T21:32:45.499Z,2.90
2019-02-19T21:35:14.167Z,2.80
2019-02-19T21:37:42.633Z,2.90
2019-02-19T21:40:15.642Z,2.80
2019-02-19T21:42:44.243Z,2.80
2019-02-19T21:45:14.911Z,2.70
2019-02-19T21:47:43.439Z,2.70
2019-02-19T21:50:15.428Z,2.70
2019-02-19T21:52:43.590Z,2.70
2019-02-19T21:55:12.858Z,2.70
2019-02-19T21:57:41.566Z,2.80
2019-02-19T22:00:16.983Z,2.80
2019-02-19T22:02:45.583Z,2.80
2019-02-19T22:05:14.074Z,2.80
2019-02-19T22:07:42.607Z,2.80
2019-02-19T22:10:12.811Z,2.70
2019-02-19T22:12:41.366Z,2.60
2019-02-19T22:15:14.238Z,2.50
2019-02-19T22:17:43.671Z,2.50
2019-02-19T22:20:38.509Z,2.40
2019-02-19T22:23:07.686Z,2.30
2019-02-19T22:25:36.215Z,2.40
2019-02-19T22:28:05.937Z,2.70
2019-02-19T22:30:34.664Z,2.80
2019-02-19T22:33:03.222Z,2.80
2019-02-19T22:35:31.755Z,2.60
2019-02-19T22:38:00.347Z,2.50
2019-02-19T22:40:28.854Z,2.40
2019-02-19T22:42:57.339Z,2.30
2019-02-19T22:45:25.896Z,2.20
2019-02-19T22:47:54.397Z,2.10
2019-02-19T22:50:22.859Z,2.00
2019-02-19T22:52:51.395Z,1.90
2019-02-19T22:55:27.552Z,1.90
2019-02-19T22:57:56.010Z,1.80
2019-02-19T23:00:47.591Z,1.70
2019-02-19T23:03:17.994Z,1.70
2019-02-19T23:05:46.531Z,1.70
2019-02-19T23:08:15.043Z,1.60
2019-02-19T23:10:43.512Z,1.60
2019-02-19T23:13:12.098Z,1.60
2019-02-19T23:15:40.632Z,1.60
2019-02-19T23:18:09.117Z,1.60
2019-02-19T23:20:37.654Z,1.60
2019-02-19T23:23:06.148Z,1.60
2019-02-19T23:25:34.632Z,1.60
2019-02-19T23:28:03.500Z,1.50
2019-02-19T23:30:33.688Z,1.50
2019-02-19T23:33:02.166Z,1.50
2019-02-19T23:35:32.290Z,1.40
2019-02-19T23:38:00.755Z,1.40
2019-02-19T23:40:29.314Z,1.40
2019-02-19T23:42:57.770Z,1.40
2019-02-19T23:45:26.263Z,1.30
2019-02-19T23:47:54.723Z,1.30
2019-02-19T23:50:23.219Z,1.20
2019-02-19T23:52:51.684Z,1.20
2019-02-19T23:55:20.235Z,1.20
2019-02-19T23:57:48.698Z,1.20
